GSB weather

Seymour Johnson Air Force Base
Goldsboro, North Carolina, United States

Public forecast

Using degrees Fahrenheit for public forecast. Weather courtesy of forecast.io.

METAR (pilot weather report)

Retrieved 2019/06/16 02:56 UTC (11 minutes ago):

KGSB 160256Z AUTO 17005KT 10SM CLR 22/16 A3011 RMK AO2 SLP198 T02160157 52005 $

TAF (pilot weather forecast)

Forecast is more than 12 hours old.

Retrieved 2019/06/14 20:00 UTC (1 day ago):

TAF KGSB 142000Z 1420/1602 26008KT 9999 SKC QNH3011INS WND VRB04KT AFT 1500 TX26/1421Z TN13/1510Z LAST NO AMDS AFT 1420 NEXT 1620